Arcola, Missouri
Current Conditions -  °F | °C
As of 5:52 PM on Friday 19 Dec 2014 (Local Time) from KSGF Reporting Station
Overcast Overcast  
Wind Chill: 35°   Ceiling: 800
Heat Index: 39°   Visibility: 10mi
Dew Point: 36°   Wind: 6mph
Humidity: 89%   Direction: 170°S
Pressure: 30.18"   Gusts: NA
Location:  37.55°N, 93.88°W
Report Text: KSGF 192352Z 17005KT 10SM OVC008 04/02 A3018 RMK AO2 SLP229 60000 T00390022 10044 20033 53005
Loading
Personal Weather Stations






























Interactive Weather Map New forecast layout! Learn more

10-Day Weather Forecast

Advertisements
Track Severe Weather on mobile